createdAt,value
2019-02-12T00:00:23.515Z,99.90
2019-02-12T00:02:55.216Z,99.90
2019-02-12T00:05:24.069Z,99.90
2019-02-12T00:07:52.100Z,99.90
2019-02-12T00:10:21.414Z,99.90
2019-02-12T00:12:50.002Z,99.90
2019-02-12T00:15:16.453Z,99.90
2019-02-12T00:17:43.025Z,99.90
2019-02-12T00:20:09.468Z,99.90
2019-02-12T00:22:36.047Z,99.90
2019-02-12T00:25:06.028Z,99.90
2019-02-12T00:27:39.843Z,99.90
2019-02-12T00:30:09.388Z,99.90
2019-02-12T00:32:36.036Z,99.90
2019-02-12T00:35:04.216Z,99.90
2019-02-12T00:37:39.284Z,99.90
2019-02-12T00:40:07.954Z,99.90
2019-02-12T00:42:34.608Z,99.90
2019-02-12T00:45:01.084Z,99.90
2019-02-12T00:47:27.534Z,99.90
2019-02-12T00:49:53.981Z,99.90
2019-02-12T00:52:20.577Z,99.90
2019-02-12T00:54:47.252Z,99.90
2019-02-12T00:57:13.705Z,99.90
2019-02-12T00:59:40.365Z,99.90
2019-02-12T01:02:06.843Z,99.90
2019-02-12T01:04:35.809Z,99.90
2019-02-12T01:07:02.481Z,99.90
2019-02-12T01:09:29.046Z,99.90
2019-02-12T01:11:55.649Z,99.90
2019-02-12T01:14:22.192Z,99.90
2019-02-12T01:16:48.663Z,99.90
2019-02-12T01:19:18.080Z,99.90
2019-02-12T01:21:44.768Z,99.90
2019-02-12T01:24:11.336Z,99.90
2019-02-12T01:26:37.791Z,99.90
2019-02-12T01:29:04.281Z,99.90
2019-02-12T01:31:30.839Z,99.90
2019-02-12T01:33:57.318Z,99.90
2019-02-12T01:36:23.855Z,99.90
2019-02-12T01:38:50.591Z,99.90
2019-02-12T01:41:16.950Z,99.90
2019-02-12T01:43:43.519Z,99.90
2019-02-12T01:46:10.402Z,99.90
2019-02-12T01:48:36.873Z,99.90
2019-02-12T01:51:03.725Z,99.90
2019-02-12T01:53:30.304Z,99.90
2019-02-12T01:55:57.045Z,99.90
2019-02-12T01:58:23.621Z,99.90
2019-02-12T02:00:50.082Z,99.90
2019-02-12T02:03:16.535Z,99.90
2019-02-12T02:05:42.896Z,99.90
2019-02-12T02:08:09.448Z,99.90
2019-02-12T02:10:36.133Z,99.90
2019-02-12T02:13:02.580Z,99.90
2019-02-12T02:15:29.148Z,99.90
2019-02-12T02:17:55.868Z,99.90
2019-02-12T02:20:22.693Z,99.90
2019-02-12T02:22:49.407Z,99.90
2019-02-12T02:25:16.144Z,99.90
2019-02-12T02:27:42.679Z,99.90
2019-02-12T02:30:11.433Z,99.90
2019-02-12T02:32:37.876Z,99.90
2019-02-12T02:35:04.843Z,99.90
2019-02-12T02:37:31.202Z,99.90
2019-02-12T02:39:57.835Z,99.90
2019-02-12T02:42:26.425Z,99.90
2019-02-12T02:44:53.031Z,99.90
2019-02-12T02:47:19.492Z,99.90
2019-02-12T02:49:45.948Z,99.90
2019-02-12T02:52:14.432Z,99.90
2019-02-12T02:54:40.785Z,99.90
2019-02-12T02:57:07.260Z,99.90
2019-02-12T02:59:33.952Z,99.90
2019-02-12T03:02:02.545Z,99.90
2019-02-12T03:04:29.100Z,99.90
2019-02-12T03:06:55.828Z,99.90
2019-02-12T03:09:22.185Z,99.90
2019-02-12T03:11:48.652Z,99.90
2019-02-12T03:14:15.206Z,99.90
2019-02-12T03:16:41.676Z,99.90
2019-02-12T03:19:08.116Z,99.90
2019-02-12T03:21:34.674Z,99.90
2019-02-12T03:24:01.149Z,99.90
2019-02-12T03:26:27.602Z,99.90
2019-02-12T03:28:54.342Z,99.90
2019-02-12T03:31:20.904Z,99.90
2019-02-12T03:33:47.371Z,99.90
2019-02-12T03:36:13.806Z,99.90
2019-02-12T03:38:40.550Z,99.90
2019-02-12T03:41:07.280Z,99.90
2019-02-12T03:43:33.759Z,99.90
2019-02-12T03:46:00.210Z,99.90
2019-02-12T03:48:26.681Z,99.90
2019-02-12T03:50:53.244Z,99.90
2019-02-12T03:53:19.624Z,99.90
2019-02-12T03:55:46.189Z,99.90
2019-02-12T03:58:13.030Z,99.90
2019-02-12T04:00:39.962Z,99.90
2019-02-12T04:03:07.008Z,99.90
2019-02-12T04:05:35.069Z,99.90
2019-02-12T04:08:01.645Z,99.90
2019-02-12T04:10:28.209Z,99.90
2019-02-12T04:12:54.856Z,99.90
2019-02-12T04:15:21.523Z,99.90
2019-02-12T04:17:47.873Z,99.90
2019-02-12T04:20:14.445Z,99.90
2019-02-12T04:22:40.996Z,99.90
2019-02-12T04:25:07.637Z,99.90
2019-02-12T04:27:34.212Z,99.90
2019-02-12T04:30:00.668Z,99.90
2019-02-12T04:32:27.135Z,99.90
2019-02-12T04:34:53.668Z,99.90
2019-02-12T04:37:20.044Z,99.90
2019-02-12T04:39:46.491Z,99.90
2019-02-12T04:42:13.076Z,99.90
2019-02-12T04:44:39.775Z,99.90
2019-02-12T04:47:06.163Z,99.90
2019-02-12T04:49:32.999Z,99.90
2019-02-12T04:51:59.461Z,99.90
2019-02-12T04:54:26.912Z,99.90
2019-02-12T04:56:53.412Z,99.90
2019-02-12T04:59:19.971Z,99.90
2019-02-12T05:01:46.522Z,99.90
2019-02-12T05:04:12.975Z,99.90
2019-02-12T05:06:39.424Z,99.90
2019-02-12T05:09:11.230Z,99.90
2019-02-12T05:11:38.571Z,99.90
2019-02-12T05:14:05.153Z,99.90
2019-02-12T05:16:31.599Z,99.90
2019-02-12T05:18:58.060Z,99.90
2019-02-12T05:21:24.601Z,99.90
2019-02-12T05:23:51.269Z,99.90
2019-02-12T05:26:18.467Z,99.90
2019-02-12T05:28:44.943Z,99.90
2019-02-12T05:31:11.384Z,99.90
2019-02-12T05:33:37.841Z,99.90
2019-02-12T05:36:04.588Z,99.90
2019-02-12T05:38:31.045Z,99.90
2019-02-12T05:40:57.524Z,99.90
2019-02-12T05:43:23.977Z,99.90
2019-02-12T05:45:50.732Z,99.90
2019-02-12T05:48:17.086Z,99.90
2019-02-12T05:50:43.584Z,99.90
2019-02-12T05:53:10.019Z,99.90
2019-02-12T05:55:36.520Z,99.90
2019-02-12T05:58:02.971Z,99.90
2019-02-12T06:00:31.316Z,99.90
2019-02-12T06:02:57.777Z,99.90
2019-02-12T06:05:25.825Z,99.90
2019-02-12T06:07:52.393Z,99.90
2019-02-12T06:10:18.848Z,99.90
2019-02-12T06:12:45.342Z,99.90
2019-02-12T06:15:11.893Z,99.90
2019-02-12T06:17:38.364Z,99.90
2019-02-12T06:20:06.213Z,99.90
2019-02-12T06:22:32.779Z,99.90
2019-02-12T06:24:59.326Z,99.90
2019-02-12T06:27:25.764Z,99.90
2019-02-12T06:29:52.633Z,99.90
2019-02-12T06:32:19.095Z,99.90
2019-02-12T06:34:45.557Z,99.90
2019-02-12T06:37:12.008Z,99.90
2019-02-12T06:39:38.489Z,99.90
2019-02-12T06:42:04.945Z,99.90
2019-02-12T06:44:31.602Z,99.90
2019-02-12T06:46:58.173Z,99.90
2019-02-12T06:49:25.032Z,99.90
2019-02-12T06:51:51.651Z,99.90
2019-02-12T06:54:18.385Z,99.90
2019-02-12T06:56:44.834Z,99.90
2019-02-12T06:59:12.021Z,99.90
2019-02-12T07:01:38.464Z,99.90
2019-02-12T07:04:05.050Z,99.90
2019-02-12T07:06:50.425Z,99.90
2019-02-12T07:09:23.669Z,99.90
2019-02-12T07:12:16.500Z,99.90
2019-02-12T07:14:49.844Z,99.90
2019-02-12T07:17:45.866Z,99.90
2019-02-12T07:20:25.110Z,99.90
2019-02-12T07:23:01.324Z,99.90
2019-02-12T07:25:37.356Z,99.90
2019-02-12T07:28:19.502Z,99.90
2019-02-12T07:30:52.844Z,99.90
2019-02-12T07:33:26.053Z,99.90
2019-02-12T07:36:08.172Z,99.90
2019-02-12T07:38:49.800Z,99.90
2019-02-12T07:41:28.861Z,99.90
2019-02-12T07:44:08.257Z,99.90
2019-02-12T07:46:38.829Z,99.90
2019-02-12T07:49:09.089Z,99.90
2019-02-12T07:51:48.506Z,99.90
2019-02-12T07:54:24.914Z,99.90
2019-02-12T07:57:14.479Z,99.90
2019-02-12T07:59:44.851Z,99.90
2019-02-12T08:02:15.214Z,99.90
2019-02-12T08:05:07.948Z,99.90
2019-02-12T08:07:50.313Z,99.90
2019-02-12T08:10:32.396Z,99.90
2019-02-12T08:13:14.626Z,99.90
2019-02-12T08:15:57.003Z,99.90
2019-02-12T08:18:27.640Z,99.90
2019-02-12T08:21:01.144Z,99.90
2019-02-12T08:24:07.014Z,99.90
2019-02-12T08:26:43.344Z,99.90
2019-02-12T08:29:25.497Z,99.90
2019-02-12T08:32:01.515Z,99.90
2019-02-12T08:34:48.210Z,99.90
2019-02-12T08:37:42.472Z,99.90
2019-02-12T08:40:27.962Z,99.90
2019-02-12T08:43:07.081Z,99.90
2019-02-12T08:45:52.402Z,99.90
2019-02-12T08:48:25.407Z,99.90
2019-02-12T08:50:58.432Z,99.90
2019-02-12T08:53:37.932Z,99.90
2019-02-12T08:56:26.393Z,99.90
2019-02-12T08:58:59.398Z,99.90
2019-02-12T09:01:46.425Z,99.90
2019-02-12T09:04:16.768Z,99.90
2019-02-12T09:06:47.049Z,99.90
2019-02-12T09:09:43.101Z,99.90
2019-02-12T09:12:16.437Z,99.90
2019-02-12T09:15:09.188Z,99.90
2019-02-12T09:17:45.865Z,99.90
2019-02-12T09:20:32.122Z,99.90
2019-02-12T09:23:08.803Z,99.90
2019-02-12T09:25:39.324Z,99.90
2019-02-12T09:28:18.377Z,99.90
2019-02-12T09:30:51.633Z,99.90
2019-02-12T09:33:53.352Z,99.90
2019-02-12T09:36:32.312Z,99.90
2019-02-12T09:39:11.750Z,99.90
2019-02-12T09:41:51.149Z,99.90
2019-02-12T09:44:42.916Z,99.90
2019-02-12T09:47:16.014Z,99.90
2019-02-12T09:49:58.140Z,99.90
2019-02-12T09:52:40.262Z,99.90
2019-02-12T09:55:39.704Z,99.90
2019-02-12T09:58:29.753Z,99.90
2019-02-12T10:01:10.095Z,99.90
2019-02-12T10:03:40.401Z,99.90
2019-02-12T10:06:10.677Z,99.90
2019-02-12T10:08:59.088Z,99.90
2019-02-12T10:11:41.464Z,99.90
2019-02-12T10:14:28.031Z,99.90
2019-02-12T10:16:58.295Z,99.90
2019-02-12T10:19:34.681Z,99.90
2019-02-12T10:22:17.435Z,96.90
2019-02-12T10:24:50.187Z,90.00
2019-02-12T10:27:39.870Z,92.40
2019-02-12T10:30:42.044Z,91.80
2019-02-12T10:33:08.516Z,97.40
2019-02-12T10:35:35.065Z,99.90
2019-02-12T10:38:01.551Z,99.90
2019-02-12T10:40:27.983Z,99.90
2019-02-12T10:42:54.338Z,99.90
2019-02-12T10:45:21.046Z,99.90
2019-02-12T10:47:47.525Z,99.90
2019-02-12T10:50:13.948Z,99.90
2019-02-12T10:52:40.308Z,99.90
2019-02-12T10:55:06.977Z,99.90
2019-02-12T10:57:33.702Z,99.90
2019-02-12T11:00:00.397Z,99.90
2019-02-12T11:02:27.542Z,99.90
2019-02-12T11:04:54.134Z,99.90
2019-02-12T11:07:20.580Z,99.90
2019-02-12T11:09:47.207Z,99.90
2019-02-12T11:12:13.555Z,99.90
2019-02-12T11:14:39.915Z,99.90
2019-02-12T11:17:08.379Z,99.90
2019-02-12T11:19:34.732Z,99.90
2019-02-12T11:22:01.217Z,99.90
2019-02-12T11:24:35.251Z,99.90
2019-02-12T11:26:55.937Z,99.90
2019-02-12T11:29:22.664Z,99.90
2019-02-12T11:31:49.235Z,99.90
2019-02-12T11:34:15.685Z,99.90
2019-02-12T11:36:42.360Z,99.90
2019-02-12T11:39:08.915Z,99.90
2019-02-12T11:41:36.344Z,99.90
2019-02-12T11:44:03.036Z,99.90
2019-02-12T11:46:29.390Z,99.90
2019-02-12T11:48:55.871Z,99.90
2019-02-12T11:51:22.511Z,99.90
2019-02-12T11:53:49.195Z,99.90
2019-02-12T11:56:15.645Z,99.90
2019-02-12T11:58:42.105Z,99.90
2019-02-12T12:01:10.460Z,99.90
2019-02-12T12:03:36.936Z,99.90
2019-02-12T12:06:03.504Z,99.90
2019-02-12T12:08:30.086Z,99.90
2019-02-12T12:10:56.633Z,99.90
2019-02-12T12:13:23.176Z,99.90
2019-02-12T12:15:49.858Z,99.90
2019-02-12T12:18:16.518Z,99.90
2019-02-12T12:20:42.987Z,99.90
2019-02-12T12:23:09.749Z,99.90
2019-02-12T12:25:36.220Z,99.90
2019-02-12T12:28:02.862Z,98.50
2019-02-12T12:30:29.430Z,99.20
2019-02-12T12:32:56.527Z,99.90
2019-02-12T12:35:23.075Z,98.70
2019-02-12T12:37:49.515Z,97.80
2019-02-12T12:40:15.992Z,95.50
2019-02-12T12:42:42.427Z,93.80
2019-02-12T12:45:10.933Z,97.70
2019-02-12T12:47:37.750Z,97.30
2019-02-12T12:50:09.973Z,98.60
2019-02-12T12:52:36.436Z,98.20
2019-02-12T12:55:04.824Z,98.20
2019-02-12T12:57:31.270Z,96.30
2019-02-12T12:59:57.703Z,99.30
2019-02-12T13:02:24.194Z,97.60
2019-02-12T13:04:50.628Z,93.00
2019-02-12T13:07:17.204Z,91.40
2019-02-12T13:09:43.748Z,88.40
2019-02-12T13:12:10.490Z,83.50
2019-02-12T13:14:36.957Z,84.90
2019-02-12T13:17:03.504Z,83.30
2019-02-12T13:19:30.001Z,90.10
2019-02-12T13:21:56.566Z,88.20
2019-02-12T13:24:23.041Z,84.00
2019-02-12T13:26:49.597Z,92.00
2019-02-12T13:29:16.096Z,84.70
2019-02-12T13:31:42.636Z,83.40
2019-02-12T13:34:09.325Z,82.70
2019-02-12T13:36:35.988Z,79.00
2019-02-12T13:39:04.427Z,71.80
2019-02-12T13:41:30.917Z,62.50
2019-02-12T13:43:57.380Z,60.00
2019-02-12T13:46:23.993Z,50.30
2019-02-12T13:48:50.567Z,50.10
2019-02-12T13:51:17.138Z,46.20
2019-02-12T13:53:43.708Z,46.60
2019-02-12T13:56:10.277Z,44.30
2019-02-12T13:58:36.828Z,43.70
2019-02-12T14:01:03.412Z,41.50
2019-02-12T14:03:29.774Z,41.30
2019-02-12T14:05:56.261Z,42.30
2019-02-12T14:08:23.078Z,43.90
2019-02-12T14:10:49.565Z,45.70
2019-02-12T14:13:16.009Z,47.40
2019-02-12T14:15:42.480Z,52.00
2019-02-12T14:18:09.044Z,51.80
2019-02-12T14:20:35.545Z,52.70
2019-02-12T14:23:02.127Z,53.40
2019-02-12T14:25:28.586Z,49.90
2019-02-12T14:27:55.066Z,55.60
2019-02-12T14:30:21.917Z,50.20
2019-02-12T14:32:48.383Z,55.60
2019-02-12T14:35:14.922Z,54.70
2019-02-12T14:37:41.619Z,55.50
2019-02-12T14:40:10.597Z,56.00
2019-02-12T14:42:37.160Z,55.70
2019-02-12T14:45:13.196Z,53.90
2019-02-12T14:47:40.080Z,52.00
2019-02-12T14:50:09.827Z,50.80
2019-02-12T14:52:36.312Z,50.50
2019-02-12T14:55:03.369Z,53.90
2019-02-12T14:57:29.841Z,61.30
2019-02-12T14:59:56.412Z,61.40
2019-02-12T15:02:23.119Z,64.30
2019-02-12T15:04:49.668Z,66.10
2019-02-12T15:07:16.384Z,75.10
2019-02-12T15:09:42.885Z,74.50
2019-02-12T15:12:09.430Z,72.60
2019-02-12T15:14:35.803Z,73.30
2019-02-12T15:17:02.615Z,76.50
2019-02-12T15:19:29.094Z,77.10
2019-02-12T15:21:55.640Z,82.10
2019-02-12T15:24:22.123Z,81.50
2019-02-12T15:26:48.736Z,84.50
2019-02-12T15:29:15.189Z,90.60
2019-02-12T15:31:41.647Z,87.90
2019-02-12T15:34:08.111Z,78.20
2019-02-12T15:36:34.456Z,74.00
2019-02-12T15:39:01.043Z,76.80
2019-02-12T15:41:27.620Z,75.60
2019-02-12T15:43:54.187Z,70.20
2019-02-12T15:46:20.762Z,70.20
2019-02-12T15:48:47.333Z,72.80
2019-02-12T15:51:13.912Z,77.70
2019-02-12T15:53:40.381Z,81.40
2019-02-12T15:56:06.945Z,88.00
2019-02-12T15:58:33.390Z,90.00
2019-02-12T16:01:01.837Z,93.30
2019-02-12T16:03:28.219Z,94.70
2019-02-12T16:05:55.156Z,96.50
2019-02-12T16:08:22.856Z,97.70
2019-02-12T16:10:49.568Z,97.50
2019-02-12T16:13:16.016Z,97.00
2019-02-12T16:15:43.527Z,97.50
2019-02-12T16:18:10.741Z,98.10
2019-02-12T16:20:37.217Z,98.90
2019-02-12T16:23:03.885Z,98.90
2019-02-12T16:25:30.497Z,99.80
2019-02-12T16:27:57.074Z,99.90
2019-02-12T16:30:23.820Z,99.90
2019-02-12T16:32:50.357Z,99.90
2019-02-12T16:35:17.093Z,99.90
2019-02-12T16:37:44.137Z,99.90
2019-02-12T16:40:12.489Z,99.90
2019-02-12T16:42:39.169Z,99.90
2019-02-12T16:45:12.079Z,99.90
2019-02-12T16:47:38.573Z,99.90
2019-02-12T16:50:06.645Z,99.90
2019-02-12T16:52:33.189Z,99.90
2019-02-12T16:54:59.568Z,99.90
2019-02-12T16:57:26.500Z,99.90
2019-02-12T16:59:53.240Z,99.90
2019-02-12T17:02:19.703Z,99.90
2019-02-12T17:04:46.272Z,99.90
2019-02-12T17:07:12.846Z,99.90
2019-02-12T17:09:39.415Z,99.90
2019-02-12T17:12:05.856Z,99.90
2019-02-12T17:14:32.609Z,99.90
2019-02-12T17:16:59.110Z,99.90
2019-02-12T17:19:25.739Z,99.90
2019-02-12T17:21:52.176Z,99.90
2019-02-12T17:24:18.560Z,99.90
2019-02-12T17:26:45.008Z,99.90
2019-02-12T17:29:11.592Z,99.90
2019-02-12T17:31:38.518Z,99.90
2019-02-12T17:34:05.017Z,99.90
2019-02-12T17:36:31.462Z,99.90
2019-02-12T17:38:58.025Z,99.90
2019-02-12T17:41:24.765Z,99.90
2019-02-12T17:43:51.240Z,99.90
2019-02-12T17:46:17.681Z,99.90
2019-02-12T17:48:44.082Z,99.90
2019-02-12T17:51:10.621Z,99.90
2019-02-12T17:53:37.088Z,99.90
2019-02-12T17:56:03.830Z,99.90
2019-02-12T17:58:30.315Z,99.90
2019-02-12T18:00:56.757Z,99.90
2019-02-12T18:03:23.481Z,99.90
2019-02-12T18:05:50.234Z,99.90
2019-02-12T18:08:16.805Z,99.90
2019-02-12T18:10:43.280Z,99.90
2019-02-12T18:13:10.017Z,99.90
2019-02-12T18:15:36.933Z,99.90
2019-02-12T18:18:03.601Z,99.90
2019-02-12T18:20:30.173Z,99.90
2019-02-12T18:22:56.875Z,99.90
2019-02-12T18:25:23.576Z,99.90
2019-02-12T18:27:50.129Z,99.90
2019-02-12T18:30:17.296Z,99.90
2019-02-12T18:32:43.981Z,99.90
2019-02-12T18:35:10.913Z,99.90
2019-02-12T18:37:37.607Z,99.90
2019-02-12T18:40:09.625Z,99.90
2019-02-12T18:42:36.200Z,99.90
2019-02-12T18:45:05.838Z,99.90
2019-02-12T18:47:32.318Z,99.90
2019-02-12T18:49:58.875Z,99.90
2019-02-12T18:52:25.340Z,99.90
2019-02-12T18:54:51.908Z,99.90
2019-02-12T18:57:18.515Z,99.90
2019-02-12T18:59:45.061Z,99.90
2019-02-12T19:02:11.531Z,99.90
2019-02-12T19:04:37.888Z,99.90
2019-02-12T19:07:04.385Z,99.90
2019-02-12T19:09:30.836Z,99.90
2019-02-12T19:11:57.328Z,99.90
2019-02-12T19:14:23.777Z,99.90
2019-02-12T19:16:50.236Z,99.90
2019-02-12T19:19:16.976Z,99.90
2019-02-12T19:21:43.432Z,99.90
2019-02-12T19:24:09.899Z,99.90
2019-02-12T19:26:36.553Z,99.90
2019-02-12T19:29:03.045Z,99.90
2019-02-12T19:31:29.475Z,99.90
2019-02-12T19:33:55.983Z,99.90
2019-02-12T19:36:22.448Z,99.90
2019-02-12T19:38:49.024Z,99.90
2019-02-12T19:41:15.663Z,99.90
2019-02-12T19:43:42.131Z,99.90
2019-02-12T19:46:08.493Z,99.90
2019-02-12T19:48:34.998Z,99.90
2019-02-12T19:51:01.482Z,99.90
2019-02-12T19:53:28.210Z,99.90
2019-02-12T19:55:54.805Z,99.90
2019-02-12T19:58:21.224Z,99.90
2019-02-12T20:00:47.709Z,99.90
2019-02-12T20:03:14.277Z,99.90
2019-02-12T20:05:40.860Z,99.90
2019-02-12T20:08:07.418Z,99.90
2019-02-12T20:10:34.104Z,99.90
2019-02-12T20:13:00.549Z,99.90
2019-02-12T20:15:27.321Z,99.90
2019-02-12T20:17:53.790Z,99.90
2019-02-12T20:20:20.441Z,99.90
2019-02-12T20:22:47.028Z,99.90
2019-02-12T20:25:13.741Z,99.90
2019-02-12T20:27:40.226Z,99.90
2019-02-12T20:30:13.828Z,99.90
2019-02-12T20:32:40.329Z,99.90
2019-02-12T20:35:09.777Z,99.90
2019-02-12T20:37:36.340Z,99.90
2019-02-12T20:40:05.796Z,99.90
2019-02-12T20:42:32.492Z,99.90
2019-02-12T20:44:59.316Z,99.90
2019-02-12T20:47:25.788Z,99.90
2019-02-12T20:49:52.496Z,99.90
2019-02-12T20:52:19.244Z,99.90
2019-02-12T20:54:45.705Z,99.90
2019-02-12T20:57:15.138Z,99.90
2019-02-12T20:59:40.532Z,99.90
2019-02-12T21:02:07.005Z,99.90
2019-02-12T21:04:33.845Z,99.90
2019-02-12T21:07:00.303Z,99.90
2019-02-12T21:09:26.789Z,99.90
2019-02-12T21:11:53.240Z,99.90
2019-02-12T21:14:19.809Z,99.90
2019-02-12T21:16:46.690Z,99.90
2019-02-12T21:19:13.426Z,99.90
2019-02-12T21:21:39.898Z,99.90
2019-02-12T21:24:06.350Z,99.90
2019-02-12T21:26:33.084Z,99.90
2019-02-12T21:28:59.548Z,99.90
2019-02-12T21:31:25.902Z,99.90
2019-02-12T21:33:52.765Z,99.90
2019-02-12T21:36:19.215Z,99.90
2019-02-12T21:38:45.799Z,99.90
2019-02-12T21:41:12.236Z,99.90
2019-02-12T21:43:38.620Z,99.90
2019-02-12T21:46:05.164Z,99.90
2019-02-12T21:48:31.881Z,99.90
2019-02-12T21:50:58.372Z,99.90
2019-02-12T21:53:25.079Z,99.90
2019-02-12T21:55:51.736Z,99.90
2019-02-12T21:58:18.359Z,99.90
2019-02-12T22:00:45.016Z,99.90
2019-02-12T22:03:11.906Z,99.90
2019-02-12T22:05:38.881Z,99.90
2019-02-12T22:08:05.725Z,99.90
2019-02-12T22:10:32.388Z,99.90
2019-02-12T22:12:59.129Z,99.90
2019-02-12T22:15:26.010Z,99.90
2019-02-12T22:17:52.861Z,99.90
2019-02-12T22:20:21.121Z,99.90
2019-02-12T22:22:47.676Z,99.90
2019-02-12T22:25:14.317Z,99.90
2019-02-12T22:27:40.987Z,99.90
2019-02-12T22:30:10.842Z,99.90
2019-02-12T22:32:37.455Z,99.90
2019-02-12T22:35:04.205Z,99.90
2019-02-12T22:37:30.684Z,99.90
2019-02-12T22:39:57.127Z,99.90
2019-02-12T22:42:23.750Z,99.90
2019-02-12T22:44:50.495Z,99.90
2019-02-12T22:47:17.234Z,99.90
2019-02-12T22:49:43.896Z,99.90
2019-02-12T22:52:10.806Z,99.90
2019-02-12T22:54:38.082Z,99.90
2019-02-12T22:57:04.775Z,99.90
2019-02-12T22:59:31.544Z,99.90
2019-02-12T23:01:58.218Z,99.90
2019-02-12T23:04:24.957Z,99.90
2019-02-12T23:06:51.893Z,99.90
2019-02-12T23:09:18.958Z,99.90
2019-02-12T23:11:45.656Z,99.90
2019-02-12T23:14:12.526Z,99.90
2019-02-12T23:16:39.171Z,99.90
2019-02-12T23:19:05.829Z,99.90
2019-02-12T23:21:32.414Z,99.90
2019-02-12T23:23:59.252Z,99.90
2019-02-12T23:26:25.840Z,99.90
2019-02-12T23:28:52.554Z,99.90
2019-02-12T23:31:19.209Z,99.90
2019-02-12T23:33:46.416Z,99.90
2019-02-12T23:36:13.104Z,99.90
2019-02-12T23:38:39.614Z,99.90
2019-02-12T23:41:06.335Z,99.90
2019-02-12T23:43:33.096Z,99.90
2019-02-12T23:46:00.312Z,99.90
2019-02-12T23:48:27.173Z,99.90
2019-02-12T23:50:53.828Z,99.90
2019-02-12T23:53:20.501Z,99.90
2019-02-12T23:55:47.199Z,99.90
2019-02-12T23:58:14.065Z,99.90
